Terminal Aerodrome Forecast
Issued by NWS

Home | Current Version | Previous Version | Text Only | Print | Product List | Glossary On
Versions: 1 2 3 4 5 6 7 8 9 10 11 12 13 14 15 16 17 18 19 20 21 22 23 24 25 26 27
000
FTUS46 KPQR 231755 CCA
TAFONP
TAF COR
KONP 231755Z 2318/2418 21009KT P6SM -SHRA FEW025 BKN050
      TEMPO 2318/2321 3SM BR SCT005 BKN012 OVC025
     FM240600 18006KT 6SM BR FEW008 SCT012 BKN050
     FM240900 VRB03KT 3SM BR FEW004 SCT008 BKN012
     FM241700 10005KT P6SM FEW025 BKN200=

USA.gov is the U.S. government's official web portal to all federal, state and local government web resources and services.